sensor_id;sensor_type;location;lat;lon;timestamp;P1;durP1;ratioP1;P2;durP2;ratioP2
31966;SDS011;18496;52.042;6.812;2022-12-29T00:02:01;3.50;;;1.40;;
31966;SDS011;18496;52.042;6.812;2022-12-29T00:04:05;1.83;;;1.48;;
31966;SDS011;18496;52.042;6.812;2022-12-29T00:06:09;2.70;;;1.70;;
31966;SDS011;18496;52.042;6.812;2022-12-29T00:08:13;2.58;;;1.40;;
31966;SDS011;18496;52.042;6.812;2022-12-29T00:10:16;4.28;;;1.50;;
31966;SDS011;18496;52.042;6.812;2022-12-29T00:12:20;2.08;;;1.17;;
31966;SDS011;18496;52.042;6.812;2022-12-29T00:14:24;2.15;;;1.20;;
31966;SDS011;18496;52.042;6.812;2022-12-29T00:16:46;3.70;;;1.42;;
31966;SDS011;18496;52.042;6.812;2022-12-29T00:18:49;1.73;;;1.33;;
31966;SDS011;18496;52.042;6.812;2022-12-29T00:20:54;2.22;;;1.35;;
31966;SDS011;18496;52.042;6.812;2022-12-29T00:23:17;1.40;;;1.30;;
31966;SDS011;18496;52.042;6.812;2022-12-29T00:25:44;1.35;;;1.25;;
31966;SDS011;18496;52.042;6.812;2022-12-29T00:28:08;2.47;;;1.30;;
31966;SDS011;18496;52.042;6.812;2022-12-29T00:30:30;2.55;;;1.58;;
31966;SDS011;18496;52.042;6.812;2022-12-29T00:32:52;1.85;;;1.35;;
31966;SDS011;18496;52.042;6.812;2022-12-29T00:35:19;1.52;;;1.20;;
31966;SDS011;18496;52.042;6.812;2022-12-29T00:37:28;1.40;;;1.20;;
31966;SDS011;18496;52.042;6.812;2022-12-29T00:39:50;1.85;;;1.55;;
31966;SDS011;18496;52.042;6.812;2022-12-29T00:42:12;1.95;;;1.50;;
31966;SDS011;18496;52.042;6.812;2022-12-29T00:44:34;3.25;;;1.30;;
31966;SDS011;18496;52.042;6.812;2022-12-29T00:46:39;2.88;;;1.40;;
31966;SDS011;18496;52.042;6.812;2022-12-29T00:48:43;1.83;;;1.38;;
31966;SDS011;18496;52.042;6.812;2022-12-29T00:51:06;1.65;;;1.30;;
31966;SDS011;18496;52.042;6.812;2022-12-29T00:53:10;1.38;;;1.27;;
31966;SDS011;18496;52.042;6.812;2022-12-29T00:55:14;1.85;;;1.30;;
31966;SDS011;18496;52.042;6.812;2022-12-29T00:57:18;1.42;;;1.33;;
31966;SDS011;18496;52.042;6.812;2022-12-29T00:59:21;4.53;;;1.33;;
31966;SDS011;18496;52.042;6.812;2022-12-29T01:01:27;2.67;;;1.15;;
31966;SDS011;18496;52.042;6.812;2022-12-29T01:03:30;1.85;;;1.30;;
31966;SDS011;18496;52.042;6.812;2022-12-29T01:05:38;1.23;;;1.00;;
31966;SDS011;18496;52.042;6.812;2022-12-29T01:07:43;2.50;;;1.13;;
31966;SDS011;18496;52.042;6.812;2022-12-29T01:09:46;2.17;;;0.95;;
31966;SDS011;18496;52.042;6.812;2022-12-29T01:12:09;0.70;;;0.70;;
31966;SDS011;18496;52.042;6.812;2022-12-29T01:14:13;1.17;;;0.80;;
31966;SDS011;18496;52.042;6.812;2022-12-29T01:16:17;1.17;;;0.77;;
31966;SDS011;18496;52.042;6.812;2022-12-29T01:18:21;3.85;;;0.70;;
31966;SDS011;18496;52.042;6.812;2022-12-29T01:20:25;2.80;;;0.95;;
31966;SDS011;18496;52.042;6.812;2022-12-29T01:22:31;1.40;;;0.80;;
31966;SDS011;18496;52.042;6.812;2022-12-29T01:24:35;2.15;;;1.23;;
31966;SDS011;18496;52.042;6.812;2022-12-29T01:26:38;1.48;;;1.30;;
31966;SDS011;18496;52.042;6.812;2022-12-29T01:28:42;1.40;;;1.15;;
31966;SDS011;18496;52.042;6.812;2022-12-29T01:30:46;7.10;;;1.50;;
31966;SDS011;18496;52.042;6.812;2022-12-29T01:32:50;3.30;;;1.38;;
31966;SDS011;18496;52.042;6.812;2022-12-29T01:34:55;2.20;;;1.30;;
31966;SDS011;18496;52.042;6.812;2022-12-29T01:36:59;2.50;;;1.30;;
31966;SDS011;18496;52.042;6.812;2022-12-29T01:39:03;1.80;;;1.52;;
31966;SDS011;18496;52.042;6.812;2022-12-29T01:41:07;3.95;;;1.38;;
31966;SDS011;18496;52.042;6.812;2022-12-29T01:43:13;2.58;;;1.77;;
31966;SDS011;18496;52.042;6.812;2022-12-29T01:45:18;2.35;;;1.80;;
31966;SDS011;18496;52.042;6.812;2022-12-29T01:49:46;3.10;;;1.67;;
31966;SDS011;18496;52.042;6.812;2022-12-29T01:53:54;4.93;;;1.65;;
31966;SDS011;18496;52.042;6.812;2022-12-29T01:56:02;5.22;;;2.00;;
31966;SDS011;18496;52.042;6.812;2022-12-29T01:58:10;2.25;;;1.40;;
31966;SDS011;18496;52.042;6.812;2022-12-29T02:00:17;3.50;;;1.92;;
31966;SDS011;18496;52.042;6.812;2022-12-29T02:02:23;3.35;;;1.80;;
31966;SDS011;18496;52.042;6.812;2022-12-29T02:04:29;1.58;;;1.25;;
31966;SDS011;18496;52.042;6.812;2022-12-29T02:06:37;3.38;;;1.50;;
31966;SDS011;18496;52.042;6.812;2022-12-29T02:08:49;4.28;;;1.25;;
31966;SDS011;18496;52.042;6.812;2022-12-29T02:10:55;1.10;;;1.00;;
31966;SDS011;18496;52.042;6.812;2022-12-29T02:12:59;3.22;;;1.30;;
31966;SDS011;18496;52.042;6.812;2022-12-29T02:15:03;1.90;;;1.60;;
31966;SDS011;18496;52.042;6.812;2022-12-29T02:17:09;2.25;;;1.30;;
31966;SDS011;18496;52.042;6.812;2022-12-29T02:34:06;2.67;;;1.13;;
31966;SDS011;18496;52.042;6.812;2022-12-29T02:38:52;5.95;;;1.00;;
31966;SDS011;18496;52.042;6.812;2022-12-29T02:45:41;1.15;;;1.00;;
31966;SDS011;18496;52.042;6.812;2022-12-29T02:50:35;1.10;;;0.93;;
31966;SDS011;18496;52.042;6.812;2022-12-29T02:52:46;1.17;;;0.80;;
31966;SDS011;18496;52.042;6.812;2022-12-29T02:55:00;1.60;;;1.10;;
31966;SDS011;18496;52.042;6.812;2022-12-29T02:57:05;3.58;;;0.98;;
31966;SDS011;18496;52.042;6.812;2022-12-29T02:59:13;5.00;;;0.90;;
31966;SDS011;18496;52.042;6.812;2022-12-29T03:01:21;1.23;;;0.73;;
31966;SDS011;18496;52.042;6.812;2022-12-29T03:04:25;1.48;;;0.82;;
31966;SDS011;18496;52.042;6.812;2022-12-29T03:13:25;3.63;;;0.98;;
31966;SDS011;18496;52.042;6.812;2022-12-29T03:20:44;2.92;;;0.80;;
31966;SDS011;18496;52.042;6.812;2022-12-29T03:22:55;2.10;;;0.90;;
31966;SDS011;18496;52.042;6.812;2022-12-29T03:25:05;3.00;;;0.90;;
31966;SDS011;18496;52.042;6.812;2022-12-29T03:27:15;1.83;;;0.80;;
31966;SDS011;18496;52.042;6.812;2022-12-29T03:29:22;2.53;;;0.80;;
31966;SDS011;18496;52.042;6.812;2022-12-29T03:31:28;2.25;;;0.65;;
31966;SDS011;18496;52.042;6.812;2022-12-29T03:33:33;2.10;;;0.70;;
31966;SDS011;18496;52.042;6.812;2022-12-29T03:35:40;2.65;;;0.77;;
31966;SDS011;18496;52.042;6.812;2022-12-29T03:38:06;2.75;;;0.75;;
31966;SDS011;18496;52.042;6.812;2022-12-29T03:40:16;2.80;;;0.70;;
31966;SDS011;18496;52.042;6.812;2022-12-29T03:42:21;1.75;;;0.85;;
31966;SDS011;18496;52.042;6.812;2022-12-29T03:44:32;1.77;;;0.70;;
31966;SDS011;18496;52.042;6.812;2022-12-29T03:46:39;3.15;;;1.05;;
31966;SDS011;18496;52.042;6.812;2022-12-29T03:48:42;8.15;;;0.90;;
31966;SDS011;18496;52.042;6.812;2022-12-29T03:50:46;1.60;;;0.68;;
31966;SDS011;18496;52.042;6.812;2022-12-29T03:52:50;1.02;;;0.73;;
31966;SDS011;18496;52.042;6.812;2022-12-29T03:54:54;1.95;;;0.65;;
31966;SDS011;18496;52.042;6.812;2022-12-29T03:56:58;4.03;;;0.85;;
31966;SDS011;18496;52.042;6.812;2022-12-29T03:59:14;4.47;;;0.98;;
31966;SDS011;18496;52.042;6.812;2022-12-29T04:01:18;2.13;;;0.88;;
31966;SDS011;18496;52.042;6.812;2022-12-29T04:03:22;3.17;;;1.08;;
31966;SDS011;18496;52.042;6.812;2022-12-29T04:05:25;3.78;;;0.90;;
31966;SDS011;18496;52.042;6.812;2022-12-29T04:07:31;1.40;;;0.77;;
31966;SDS011;18496;52.042;6.812;2022-12-29T04:09:35;1.98;;;0.70;;
31966;SDS011;18496;52.042;6.812;2022-12-29T04:11:39;2.92;;;0.85;;
31966;SDS011;18496;52.042;6.812;2022-12-29T04:13:43;2.47;;;0.70;;
31966;SDS011;18496;52.042;6.812;2022-12-29T04:15:51;4.53;;;0.98;;
31966;SDS011;18496;52.042;6.812;2022-12-29T04:17:55;3.78;;;0.85;;
31966;SDS011;18496;52.042;6.812;2022-12-29T04:19:59;0.85;;;0.70;;
31966;SDS011;18496;52.042;6.812;2022-12-29T04:22:21;1.05;;;0.75;;
31966;SDS011;18496;52.042;6.812;2022-12-29T04:24:25;1.13;;;0.52;;
31966;SDS011;18496;52.042;6.812;2022-12-29T04:26:28;4.10;;;0.90;;
31966;SDS011;18496;52.042;6.812;2022-12-29T04:28:43;2.70;;;0.82;;
31966;SDS011;18496;52.042;6.812;2022-12-29T04:31:03;3.05;;;0.95;;
31966;SDS011;18496;52.042;6.812;2022-12-29T04:33:13;1.73;;;0.88;;
31966;SDS011;18496;52.042;6.812;2022-12-29T04:35:18;2.22;;;0.80;;
31966;SDS011;18496;52.042;6.812;2022-12-29T04:37:22;3.75;;;0.90;;
31966;SDS011;18496;52.042;6.812;2022-12-29T04:39:26;1.73;;;0.70;;
31966;SDS011;18496;52.042;6.812;2022-12-29T04:41:29;1.23;;;0.57;;
31966;SDS011;18496;52.042;6.812;2022-12-29T04:43:33;0.70;;;0.50;;
31966;SDS011;18496;52.042;6.812;2022-12-29T04:45:46;2.03;;;0.80;;
31966;SDS011;18496;52.042;6.812;2022-12-29T04:48:02;3.78;;;0.90;;
31966;SDS011;18496;52.042;6.812;2022-12-29T04:50:22;1.55;;;0.77;;
31966;SDS011;18496;52.042;6.812;2022-12-29T04:52:52;1.30;;;0.73;;
31966;SDS011;18496;52.042;6.812;2022-12-29T04:54:56;2.45;;;0.75;;
31966;SDS011;18496;52.042;6.812;2022-12-29T04:57:00;4.68;;;1.13;;
31966;SDS011;18496;52.042;6.812;2022-12-29T04:59:04;5.38;;;1.00;;
31966;SDS011;18496;52.042;6.812;2022-12-29T05:01:08;2.33;;;1.05;;
31966;SDS011;18496;52.042;6.812;2022-12-29T05:03:12;4.20;;;0.90;;
31966;SDS011;18496;52.042;6.812;2022-12-29T05:05:18;6.95;;;1.00;;
31966;SDS011;18496;52.042;6.812;2022-12-29T05:07:25;1.85;;;0.77;;
31966;SDS011;18496;52.042;6.812;2022-12-29T05:09:31;1.92;;;0.55;;
31966;SDS011;18496;52.042;6.812;2022-12-29T05:11:36;2.95;;;0.60;;
31966;SDS011;18496;52.042;6.812;2022-12-29T05:13:40;4.18;;;0.73;;
31966;SDS011;18496;52.042;6.812;2022-12-29T05:15:51;2.05;;;0.60;;
31966;SDS011;18496;52.042;6.812;2022-12-29T05:17:57;5.13;;;0.60;;
31966;SDS011;18496;52.042;6.812;2022-12-29T05:20:02;5.53;;;0.80;;
31966;SDS011;18496;52.042;6.812;2022-12-29T05:22:07;1.35;;;0.88;;
31966;SDS011;18496;52.042;6.812;2022-12-29T05:24:11;2.55;;;0.70;;
31966;SDS011;18496;52.042;6.812;2022-12-29T05:26:14;3.65;;;0.88;;
31966;SDS011;18496;52.042;6.812;2022-12-29T05:28:41;4.95;;;0.90;;
31966;SDS011;18496;52.042;6.812;2022-12-29T05:30:49;3.13;;;0.57;;
31966;SDS011;18496;52.042;6.812;2022-12-29T05:32:55;1.10;;;0.52;;
31966;SDS011;18496;52.042;6.812;2022-12-29T05:34:58;2.65;;;0.60;;
31966;SDS011;18496;52.042;6.812;2022-12-29T05:37:02;1.85;;;0.65;;
31966;SDS011;18496;52.042;6.812;2022-12-29T05:39:06;2.42;;;0.73;;
31966;SDS011;18496;52.042;6.812;2022-12-29T05:41:11;4.78;;;0.98;;
31966;SDS011;18496;52.042;6.812;2022-12-29T05:43:20;0.80;;;0.50;;
31966;SDS011;18496;52.042;6.812;2022-12-29T05:45:50;5.68;;;0.98;;
31966;SDS011;18496;52.042;6.812;2022-12-29T05:48:22;5.53;;;0.90;;
31966;SDS011;18496;52.042;6.812;2022-12-29T05:50:41;4.20;;;0.68;;
31966;SDS011;18496;52.042;6.812;2022-12-29T05:52:48;5.45;;;0.90;;
31966;SDS011;18496;52.042;6.812;2022-12-29T05:54:52;8.60;;;1.02;;
31966;SDS011;18496;52.042;6.812;2022-12-29T05:56:58;5.75;;;0.60;;
31966;SDS011;18496;52.042;6.812;2022-12-29T05:59:02;7.75;;;1.17;;
31966;SDS011;18496;52.042;6.812;2022-12-29T06:01:06;2.33;;;0.90;;
31966;SDS011;18496;52.042;6.812;2022-12-29T06:03:10;4.63;;;1.02;;
31966;SDS011;18496;52.042;6.812;2022-12-29T06:05:14;13.85;;;1.23;;
31966;SDS011;18496;52.042;6.812;2022-12-29T06:07:18;4.47;;;0.70;;
31966;SDS011;18496;52.042;6.812;2022-12-29T06:09:24;4.32;;;1.08;;
31966;SDS011;18496;52.042;6.812;2022-12-29T06:11:29;10.40;;;1.48;;
31966;SDS011;18496;52.042;6.812;2022-12-29T06:13:35;5.18;;;0.90;;
31966;SDS011;18496;52.042;6.812;2022-12-29T06:15:39;10.70;;;1.63;;
31966;SDS011;18496;52.042;6.812;2022-12-29T06:17:45;5.50;;;1.05;;
31966;SDS011;18496;52.042;6.812;2022-12-29T06:19:49;5.75;;;1.35;;
31966;SDS011;18496;52.042;6.812;2022-12-29T06:21:54;8.20;;;1.60;;
31966;SDS011;18496;52.042;6.812;2022-12-29T06:23:58;4.40;;;1.33;;
31966;SDS011;18496;52.042;6.812;2022-12-29T06:26:02;7.13;;;1.20;;
31966;SDS011;18496;52.042;6.812;2022-12-29T06:28:06;2.90;;;0.82;;
31966;SDS011;18496;52.042;6.812;2022-12-29T06:30:10;3.95;;;1.20;;
31966;SDS011;18496;52.042;6.812;2022-12-29T06:32:15;5.57;;;1.15;;
31966;SDS011;18496;52.042;6.812;2022-12-29T06:34:24;9.00;;;1.30;;
31966;SDS011;18496;52.042;6.812;2022-12-29T06:36:28;7.85;;;1.10;;
31966;SDS011;18496;52.042;6.812;2022-12-29T06:38:31;6.13;;;0.90;;
31966;SDS011;18496;52.042;6.812;2022-12-29T06:40:36;6.70;;;0.90;;
31966;SDS011;18496;52.042;6.812;2022-12-29T06:42:52;5.28;;;1.30;;
31966;SDS011;18496;52.042;6.812;2022-12-29T06:45:09;6.03;;;1.20;;
31966;SDS011;18496;52.042;6.812;2022-12-29T06:47:13;12.13;;;1.38;;
31966;SDS011;18496;52.042;6.812;2022-12-29T06:49:17;8.05;;;1.35;;
31966;SDS011;18496;52.042;6.812;2022-12-29T06:51:20;5.30;;;1.25;;
31966;SDS011;18496;52.042;6.812;2022-12-29T06:53:24;8.38;;;1.50;;
31966;SDS011;18496;52.042;6.812;2022-12-29T06:55:27;3.45;;;1.00;;
31966;SDS011;18496;52.042;6.812;2022-12-29T06:57:31;7.07;;;1.08;;
31966;SDS011;18496;52.042;6.812;2022-12-29T06:59:35;6.60;;;1.20;;
31966;SDS011;18496;52.042;6.812;2022-12-29T07:01:38;6.55;;;1.20;;
31966;SDS011;18496;52.042;6.812;2022-12-29T07:03:42;5.32;;;1.23;;
31966;SDS011;18496;52.042;6.812;2022-12-29T07:05:46;4.03;;;0.68;;
31966;SDS011;18496;52.042;6.812;2022-12-29T07:07:49;3.05;;;1.20;;
31966;SDS011;18496;52.042;6.812;2022-12-29T07:09:53;8.45;;;1.27;;
31966;SDS011;18496;52.042;6.812;2022-12-29T07:11:57;5.78;;;0.93;;
31966;SDS011;18496;52.042;6.812;2022-12-29T07:14:01;3.83;;;1.48;;
31966;SDS011;18496;52.042;6.812;2022-12-29T07:16:05;7.00;;;1.48;;
31966;SDS011;18496;52.042;6.812;2022-12-29T07:18:13;6.57;;;0.88;;
31966;SDS011;18496;52.042;6.812;2022-12-29T07:20:16;8.43;;;1.30;;
31966;SDS011;18496;52.042;6.812;2022-12-29T07:22:20;2.58;;;0.90;;
31966;SDS011;18496;52.042;6.812;2022-12-29T07:24:24;4.95;;;1.02;;
31966;SDS011;18496;52.042;6.812;2022-12-29T07:26:28;5.38;;;1.02;;
31966;SDS011;18496;52.042;6.812;2022-12-29T07:28:32;4.93;;;0.82;;
31966;SDS011;18496;52.042;6.812;2022-12-29T07:30:37;6.25;;;1.00;;
31966;SDS011;18496;52.042;6.812;2022-12-29T07:32:41;6.28;;;1.40;;
31966;SDS011;18496;52.042;6.812;2022-12-29T07:34:45;4.53;;;1.10;;
31966;SDS011;18496;52.042;6.812;2022-12-29T07:36:50;4.03;;;1.00;;
31966;SDS011;18496;52.042;6.812;2022-12-29T07:38:53;9.15;;;1.13;;
31966;SDS011;18496;52.042;6.812;2022-12-29T07:40:57;6.65;;;1.17;;
31966;SDS011;18496;52.042;6.812;2022-12-29T07:43:02;8.65;;;1.05;;
31966;SDS011;18496;52.042;6.812;2022-12-29T07:45:12;4.32;;;1.13;;
31966;SDS011;18496;52.042;6.812;2022-12-29T07:47:29;4.20;;;0.98;;
31966;SDS011;18496;52.042;6.812;2022-12-29T07:49:32;5.80;;;1.65;;
31966;SDS011;18496;52.042;6.812;2022-12-29T07:51:36;5.82;;;1.00;;
31966;SDS011;18496;52.042;6.812;2022-12-29T07:53:40;5.35;;;1.55;;
31966;SDS011;18496;52.042;6.812;2022-12-29T07:55:43;8.30;;;1.13;;
31966;SDS011;18496;52.042;6.812;2022-12-29T07:57:47;5.97;;;1.20;;
31966;SDS011;18496;52.042;6.812;2022-12-29T07:59:50;8.73;;;1.25;;
31966;SDS011;18496;52.042;6.812;2022-12-29T08:01:54;5.05;;;1.52;;
31966;SDS011;18496;52.042;6.812;2022-12-29T08:03:58;5.47;;;1.17;;
31966;SDS011;18496;52.042;6.812;2022-12-29T08:06:01;8.23;;;1.05;;
31966;SDS011;18496;52.042;6.812;2022-12-29T08:08:05;3.35;;;0.88;;
31966;SDS011;18496;52.042;6.812;2022-12-29T08:10:09;10.02;;;1.38;;
31966;SDS011;18496;52.042;6.812;2022-12-29T08:12:13;4.80;;;1.25;;
31966;SDS011;18496;52.042;6.812;2022-12-29T08:14:17;3.92;;;1.20;;
31966;SDS011;18496;52.042;6.812;2022-12-29T08:16:21;5.88;;;0.80;;
31966;SDS011;18496;52.042;6.812;2022-12-29T08:18:24;7.68;;;0.95;;
31966;SDS011;18496;52.042;6.812;2022-12-29T08:20:28;5.88;;;1.40;;
31966;SDS011;18496;52.042;6.812;2022-12-29T08:22:32;5.80;;;1.20;;
31966;SDS011;18496;52.042;6.812;2022-12-29T08:24:35;7.32;;;1.08;;
31966;SDS011;18496;52.042;6.812;2022-12-29T08:26:39;4.75;;;1.23;;
31966;SDS011;18496;52.042;6.812;2022-12-29T08:28:42;5.97;;;1.00;;
31966;SDS011;18496;52.042;6.812;2022-12-29T08:30:46;6.05;;;1.35;;
31966;SDS011;18496;52.042;6.812;2022-12-29T08:32:50;5.10;;;1.60;;
31966;SDS011;18496;52.042;6.812;2022-12-29T08:34:53;6.00;;;1.48;;
31966;SDS011;18496;52.042;6.812;2022-12-29T08:36:57;7.68;;;1.02;;
31966;SDS011;18496;52.042;6.812;2022-12-29T08:39:01;7.45;;;1.58;;
31966;SDS011;18496;52.042;6.812;2022-12-29T08:41:04;7.32;;;1.67;;
31966;SDS011;18496;52.042;6.812;2022-12-29T08:43:09;11.25;;;1.45;;
31966;SDS011;18496;52.042;6.812;2022-12-29T08:45:12;7.32;;;1.52;;
31966;SDS011;18496;52.042;6.812;2022-12-29T08:47:16;5.15;;;1.52;;
31966;SDS011;18496;52.042;6.812;2022-12-29T08:49:20;7.45;;;1.10;;
31966;SDS011;18496;52.042;6.812;2022-12-29T08:51:23;12.40;;;1.27;;
31966;SDS011;18496;52.042;6.812;2022-12-29T08:53:27;6.32;;;1.40;;
31966;SDS011;18496;52.042;6.812;2022-12-29T08:55:30;9.35;;;1.70;;
31966;SDS011;18496;52.042;6.812;2022-12-29T08:57:34;9.00;;;1.70;;
31966;SDS011;18496;52.042;6.812;2022-12-29T08:59:46;8.90;;;1.58;;
31966;SDS011;18496;52.042;6.812;2022-12-29T09:01:51;10.85;;;1.98;;
31966;SDS011;18496;52.042;6.812;2022-12-29T09:03:54;4.88;;;1.67;;
31966;SDS011;18496;52.042;6.812;2022-12-29T09:05:58;5.88;;;1.40;;
31966;SDS011;18496;52.042;6.812;2022-12-29T09:08:02;5.78;;;1.38;;
31966;SDS011;18496;52.042;6.812;2022-12-29T09:10:06;7.20;;;0.98;;
31966;SDS011;18496;52.042;6.812;2022-12-29T09:12:10;10.40;;;1.50;;
31966;SDS011;18496;52.042;6.812;2022-12-29T09:14:14;8.48;;;1.48;;
31966;SDS011;18496;52.042;6.812;2022-12-29T09:16:17;7.53;;;1.58;;
31966;SDS011;18496;52.042;6.812;2022-12-29T09:18:23;9.40;;;1.88;;
31966;SDS011;18496;52.042;6.812;2022-12-29T09:20:27;8.32;;;2.10;;
31966;SDS011;18496;52.042;6.812;2022-12-29T09:22:30;7.22;;;1.27;;
31966;SDS011;18496;52.042;6.812;2022-12-29T09:24:34;7.65;;;2.33;;
31966;SDS011;18496;52.042;6.812;2022-12-29T09:26:38;8.25;;;1.85;;
31966;SDS011;18496;52.042;6.812;2022-12-29T09:28:41;7.78;;;1.90;;
31966;SDS011;18496;52.042;6.812;2022-12-29T09:30:47;8.88;;;1.73;;
31966;SDS011;18496;52.042;6.812;2022-12-29T09:32:52;3.95;;;1.17;;
31966;SDS011;18496;52.042;6.812;2022-12-29T09:34:55;4.63;;;1.08;;
31966;SDS011;18496;52.042;6.812;2022-12-29T09:36:59;11.70;;;1.98;;
31966;SDS011;18496;52.042;6.812;2022-12-29T09:39:03;9.60;;;1.35;;
31966;SDS011;18496;52.042;6.812;2022-12-29T09:43:45;13.82;;;2.05;;
31966;SDS011;18496;52.042;6.812;2022-12-29T09:48:26;16.77;;;2.42;;
31966;SDS011;18496;52.042;6.812;2022-12-29T09:50:34;19.10;;;1.92;;
31966;SDS011;18496;52.042;6.812;2022-12-29T09:52:55;4.57;;;1.10;;
31966;SDS011;18496;52.042;6.812;2022-12-29T09:55:10;14.02;;;2.65;;
31966;SDS011;18496;52.042;6.812;2022-12-29T09:57:16;10.80;;;2.22;;
31966;SDS011;18496;52.042;6.812;2022-12-29T09:59:39;8.52;;;1.75;;
31966;SDS011;18496;52.042;6.812;2022-12-29T10:03:55;13.65;;;1.83;;
31966;SDS011;18496;52.042;6.812;2022-12-29T10:06:04;11.13;;;4.28;;
31966;SDS011;18496;52.042;6.812;2022-12-29T10:11:13;12.23;;;2.17;;
31966;SDS011;18496;52.042;6.812;2022-12-29T10:13:48;7.22;;;2.72;;
31966;SDS011;18496;52.042;6.812;2022-12-29T10:25:23;8.10;;;1.55;;
31966;SDS011;18496;52.042;6.812;2022-12-29T10:27:30;7.85;;;1.98;;
31966;SDS011;18496;52.042;6.812;2022-12-29T10:29:37;13.23;;;2.05;;
31966;SDS011;18496;52.042;6.812;2022-12-29T10:31:58;8.82;;;1.77;;
31966;SDS011;18496;52.042;6.812;2022-12-29T10:34:10;7.13;;;2.00;;
31966;SDS011;18496;52.042;6.812;2022-12-29T10:36:37;8.82;;;1.58;;
31966;SDS011;18496;52.042;6.812;2022-12-29T10:39:05;7.88;;;2.03;;
31966;SDS011;18496;52.042;6.812;2022-12-29T10:41:24;11.60;;;1.92;;
31966;SDS011;18496;52.042;6.812;2022-12-29T10:44:14;10.20;;;2.05;;
31966;SDS011;18496;52.042;6.812;2022-12-29T10:46:04;10.95;;;2.00;;
31966;SDS011;18496;52.042;6.812;2022-12-29T10:48:17;8.32;;;1.67;;
31966;SDS011;18496;52.042;6.812;2022-12-29T10:50:28;16.73;;;1.65;;
31966;SDS011;18496;52.042;6.812;2022-12-29T10:52:32;8.27;;;1.25;;
31966;SDS011;18496;52.042;6.812;2022-12-29T10:57:02;8.77;;;1.63;;
31966;SDS011;18496;52.042;6.812;2022-12-29T10:59:13;4.82;;;1.73;;
31966;SDS011;18496;52.042;6.812;2022-12-29T11:01:24;7.22;;;1.48;;
31966;SDS011;18496;52.042;6.812;2022-12-29T11:03:48;8.50;;;1.40;;
31966;SDS011;18496;52.042;6.812;2022-12-29T11:06:05;5.80;;;1.50;;
31966;SDS011;18496;52.042;6.812;2022-12-29T11:08:24;10.25;;;1.88;;
31966;SDS011;18496;52.042;6.812;2022-12-29T11:10:37;11.15;;;2.17;;
31966;SDS011;18496;52.042;6.812;2022-12-29T11:13:10;8.07;;;2.03;;
31966;SDS011;18496;52.042;6.812;2022-12-29T11:15:14;10.88;;;1.88;;
31966;SDS011;18496;52.042;6.812;2022-12-29T11:17:19;13.85;;;1.77;;
31966;SDS011;18496;52.042;6.812;2022-12-29T11:19:24;10.68;;;2.60;;
31966;SDS011;18496;52.042;6.812;2022-12-29T11:23:42;8.50;;;1.77;;
31966;SDS011;18496;52.042;6.812;2022-12-29T11:25:46;6.82;;;1.67;;
31966;SDS011;18496;52.042;6.812;2022-12-29T11:28:14;13.90;;;2.90;;
31966;SDS011;18496;52.042;6.812;2022-12-29T11:30:23;4.78;;;1.35;;
31966;SDS011;18496;52.042;6.812;2022-12-29T11:32:29;9.40;;;2.58;;
31966;SDS011;18496;52.042;6.812;2022-12-29T11:34:33;7.80;;;1.45;;
31966;SDS011;18496;52.042;6.812;2022-12-29T11:36:38;8.18;;;2.05;;
31966;SDS011;18496;52.042;6.812;2022-12-29T11:38:46;4.80;;;1.00;;
31966;SDS011;18496;52.042;6.812;2022-12-29T11:40:57;7.53;;;1.25;;
31966;SDS011;18496;52.042;6.812;2022-12-29T11:43:01;6.90;;;1.25;;
31966;SDS011;18496;52.042;6.812;2022-12-29T11:45:09;5.95;;;1.50;;
31966;SDS011;18496;52.042;6.812;2022-12-29T11:47:26;4.05;;;1.10;;
31966;SDS011;18496;52.042;6.812;2022-12-29T11:49:34;6.55;;;1.60;;
31966;SDS011;18496;52.042;6.812;2022-12-29T11:51:44;8.43;;;1.30;;
31966;SDS011;18496;52.042;6.812;2022-12-29T11:53:51;3.83;;;1.20;;
31966;SDS011;18496;52.042;6.812;2022-12-29T11:56:00;13.23;;;1.83;;
31966;SDS011;18496;52.042;6.812;2022-12-29T11:58:11;7.15;;;1.92;;
31966;SDS011;18496;52.042;6.812;2022-12-29T12:00:22;10.10;;;1.92;;
31966;SDS011;18496;52.042;6.812;2022-12-29T12:02:39;7.10;;;1.85;;
31966;SDS011;18496;52.042;6.812;2022-12-29T12:04:51;6.40;;;1.60;;
31966;SDS011;18496;52.042;6.812;2022-12-29T12:09:14;8.02;;;1.65;;
31966;SDS011;18496;52.042;6.812;2022-12-29T12:11:35;7.13;;;1.88;;
31966;SDS011;18496;52.042;6.812;2022-12-29T12:14:02;5.35;;;1.77;;
31966;SDS011;18496;52.042;6.812;2022-12-29T12:16:37;5.40;;;1.80;;
31966;SDS011;18496;52.042;6.812;2022-12-29T12:18:53;9.15;;;1.73;;
31966;SDS011;18496;52.042;6.812;2022-12-29T12:21:06;10.88;;;2.55;;
31966;SDS011;18496;52.042;6.812;2022-12-29T12:23:18;10.15;;;2.15;;
31966;SDS011;18496;52.042;6.812;2022-12-29T12:25:32;5.30;;;1.40;;
31966;SDS011;18496;52.042;6.812;2022-12-29T12:27:56;7.38;;;2.40;;
31966;SDS011;18496;52.042;6.812;2022-12-29T12:30:15;9.13;;;2.05;;
31966;SDS011;18496;52.042;6.812;2022-12-29T12:32:24;6.97;;;2.40;;
31966;SDS011;18496;52.042;6.812;2022-12-29T12:34:44;10.70;;;2.28;;
31966;SDS011;18496;52.042;6.812;2022-12-29T12:39:05;11.57;;;2.35;;
31966;SDS011;18496;52.042;6.812;2022-12-29T12:41:12;8.82;;;2.30;;
31966;SDS011;18496;52.042;6.812;2022-12-29T12:51:30;10.43;;;2.08;;
31966;SDS011;18496;52.042;6.812;2022-12-29T12:54:07;8.35;;;2.10;;
31966;SDS011;18496;52.042;6.812;2022-12-29T12:56:38;11.10;;;3.08;;
31966;SDS011;18496;52.042;6.812;2022-12-29T13:01:38;13.32;;;2.22;;
31966;SDS011;18496;52.042;6.812;2022-12-29T13:10:45;11.80;;;2.35;;
31966;SDS011;18496;52.042;6.812;2022-12-29T13:15:36;13.45;;;2.40;;
31966;SDS011;18496;52.042;6.812;2022-12-29T13:20:16;5.18;;;2.05;;
31966;SDS011;18496;52.042;6.812;2022-12-29T13:22:25;6.50;;;1.80;;
31966;SDS011;18496;52.042;6.812;2022-12-29T13:24:56;15.23;;;2.08;;
31966;SDS011;18496;52.042;6.812;2022-12-29T13:27:29;8.23;;;2.42;;
31966;SDS011;18496;52.042;6.812;2022-12-29T13:36:55;13.77;;;2.30;;
31966;SDS011;18496;52.042;6.812;2022-12-29T13:39:09;12.52;;;2.50;;
31966;SDS011;18496;52.042;6.812;2022-12-29T13:41:29;11.52;;;2.00;;
31966;SDS011;18496;52.042;6.812;2022-12-29T13:43:39;13.73;;;2.92;;
31966;SDS011;18496;52.042;6.812;2022-12-29T13:45:45;17.85;;;2.55;;
31966;SDS011;18496;52.042;6.812;2022-12-29T13:50:03;14.07;;;2.67;;
31966;SDS011;18496;52.042;6.812;2022-12-29T13:52:21;10.23;;;2.20;;
31966;SDS011;18496;52.042;6.812;2022-12-29T13:57:36;11.73;;;2.72;;
31966;SDS011;18496;52.042;6.812;2022-12-29T13:59:36;16.17;;;3.22;;
31966;SDS011;18496;52.042;6.812;2022-12-29T14:02:01;9.48;;;2.78;;
31966;SDS011;18496;52.042;6.812;2022-12-29T14:04:27;9.25;;;3.15;;
31966;SDS011;18496;52.042;6.812;2022-12-29T14:06:33;12.07;;;2.38;;
31966;SDS011;18496;52.042;6.812;2022-12-29T14:08:43;6.95;;;1.92;;
31966;SDS011;18496;52.042;6.812;2022-12-29T14:10:48;11.93;;;1.80;;
31966;SDS011;18496;52.042;6.812;2022-12-29T14:12:59;15.48;;;2.47;;
31966;SDS011;18496;52.042;6.812;2022-12-29T14:17:20;10.13;;;2.03;;
31966;SDS011;18496;52.042;6.812;2022-12-29T14:19:31;17.75;;;4.97;;
31966;SDS011;18496;52.042;6.812;2022-12-29T14:21:38;13.65;;;3.00;;
31966;SDS011;18496;52.042;6.812;2022-12-29T14:23:44;8.15;;;2.55;;
31966;SDS011;18496;52.042;6.812;2022-12-29T14:28:35;7.07;;;2.15;;
31966;SDS011;18496;52.042;6.812;2022-12-29T14:30:48;12.00;;;2.55;;
31966;SDS011;18496;52.042;6.812;2022-12-29T14:33:00;18.55;;;2.28;;
31966;SDS011;18496;52.042;6.812;2022-12-29T14:37:42;7.95;;;2.30;;
31966;SDS011;18496;52.042;6.812;2022-12-29T14:39:46;12.50;;;2.92;;
31966;SDS011;18496;52.042;6.812;2022-12-29T14:41:59;10.95;;;2.30;;
31966;SDS011;18496;52.042;6.812;2022-12-29T14:46:10;12.80;;;2.35;;
31966;SDS011;18496;52.042;6.812;2022-12-29T14:48:21;8.55;;;2.42;;
31966;SDS011;18496;52.042;6.812;2022-12-29T14:50:37;10.30;;;2.10;;